Home PIREPS Pireps

Flight BEL716

  • Submitted By: Serge Morabito
  • Departure Airport: Oostende (EBOS)
  • Arrival Airport: Luxembourg / Luxembourg (ELLX)
  • Aircraft: B737-800 (OO-SLR)
  • Flight Time: 01.20
  • Date Submitted: 27/08/2016
  • Route: KOK L607 LNO
  • Status: Accepted
Flight Details
Gross Revenue:
(136 load / € 0.00 per unit
€ 0.00
Fuel Cost:
(1833 fuel used @ 0 / unit)
€ 0.00

Additional Log Information:

View Log

Aircraft Used in flight is B738 (v4.93) Brussels Airlines
21:57 Brakes are On
22:10 Brakes are Released
22:12 Brakes are On
22:17 Brakes are Released
22:19 Brakes are On
22:19 Brakes are Released
22:19 Brakes are On
22:23 Brakes are Released
22:25 Brakes are On
22:25 Brakes are Released
22:25 Brakes are On
22:25 Brakes are Released
22:25 Brakes are On
22:29 Brakes are Released
22:30 Brakes are On
22:30 Brakes are Released
22:31 You Took off @ 161 Knots and Flaps at Position 3
Departure Weather
EBOS 271950Z 26004KT CAVOK 22/19 Q1013 NOSIGrn
22:31 You are Airborne and your Navigation Lights are off
22:31 Landing Gear Up @ 193 Knots and 220 Feet
22:32 Below FL100 you need to turn on the landing lights
22:34 You exceeded maximum bank angle
22:59 Below 10000 feet you are not allowed to go over 250 knots
23:06 Landing Gear Down @ 165 Knots and 4040 Feet
23:10 You Landed @ 125 Knots and with -650 Vertical Speed
Arrival Weather
ELLX 272050Z 15003KT CAVOK 25/15 Q1016 NOSIGrn
23:10 Your Landing was very hard
23:10 Brakes are On
23:10 Brakes are Released
23:10 Brakes are On
23:10 Brakes are Released
23:10 Brakes are On
23:10 Brakes are Released
23:10 Brakes are On
23:10 Brakes are Released
23:11 Brakes are On
23:11 Brakes are Released
23:11 Brakes are On
23:11 Brakes are Released
23:11 Brakes are On
23:11 Brakes are Released
23:11 Brakes are On
23:12 Brakes are Released
23:15 Brakes are On
23:18 Brussels Bel-Track1.0.1.2

Route Map

Corporate About Us Our Team Vacancies Information Fleet Route Network Rules and Regulations Operations Flight Schedules Event Center Tours Partners IVAO Vatsim Acars dev FSCB

fb Users Online Belgium John Smits,
1 Pilot(s) and 88 Guest(s) Online
CMS by phpVMS - Design by Crazycreatives.com - Copyright © 2019 - Brussels Airlines Virtual